createdAt,value
2022-12-08T00:01:14.048Z,97034.56
2022-12-08T00:03:41.007Z,97037.31
2022-12-08T00:06:26.917Z,97044.56
2022-12-08T00:09:11.671Z,97050.75
2022-12-08T00:11:39.071Z,97058.69
2022-12-08T00:14:05.485Z,97062.63
2022-12-08T00:16:31.908Z,97056.22
2022-12-08T00:18:58.374Z,97065.13
2022-12-08T00:21:24.839Z,97058.78
2022-12-08T00:23:54.408Z,97056.56
2022-12-08T00:26:20.808Z,97056.00
2022-12-08T00:28:47.346Z,97059.81
2022-12-08T00:31:13.972Z,97070.34
2022-12-08T00:33:40.533Z,97072.13
2022-12-08T00:36:11.612Z,97077.28
2022-12-08T00:38:39.143Z,97073.00
2022-12-08T00:41:42.621Z,97081.19
2022-12-08T00:44:10.002Z,97085.22
2022-12-08T00:46:36.447Z,97091.94
2022-12-08T00:49:03.670Z,97092.94
2022-12-08T00:51:30.107Z,97092.81
2022-12-08T00:53:56.506Z,97086.53
2022-12-08T00:56:23.264Z,97092.09
2022-12-08T00:58:49.752Z,97085.75
2022-12-08T01:01:16.623Z,97078.00
2022-12-08T01:03:43.561Z,97082.16
2022-12-08T01:06:09.988Z,97074.97
2022-12-08T01:08:37.357Z,97080.56
2022-12-08T01:11:04.667Z,97073.16
2022-12-08T01:13:31.117Z,97067.81
2022-12-08T01:15:57.695Z,97062.41
2022-12-08T01:18:24.153Z,97061.97
2022-12-08T01:20:50.634Z,97063.50
2022-12-08T01:23:17.053Z,97064.22
2022-12-08T01:25:43.453Z,97053.25
2022-12-08T01:28:09.901Z,97055.06
2022-12-08T01:30:38.218Z,97051.84
2022-12-08T01:33:04.950Z,97053.06
2022-12-08T01:35:31.350Z,97065.84
2022-12-08T01:37:57.733Z,97059.31
2022-12-08T01:40:24.169Z,97059.19
2022-12-08T01:42:50.614Z,97061.44
2022-12-08T01:45:25.590Z,97058.84
2022-12-08T01:47:55.218Z,97056.28
2022-12-08T01:50:22.164Z,97060.63
2022-12-08T01:52:59.819Z,97062.44
2022-12-08T01:55:28.874Z,97057.28
2022-12-08T01:58:21.756Z,97059.09
2022-12-08T02:00:49.372Z,97052.94
2022-12-08T02:03:18.600Z,97040.28
2022-12-08T02:05:46.158Z,97043.81
2022-12-08T02:08:13.199Z,97058.47
2022-12-08T02:10:40.741Z,97049.41
2022-12-08T02:13:09.347Z,97053.09
2022-12-08T02:15:35.788Z,97062.97
2022-12-08T02:18:37.715Z,97053.44
2022-12-08T02:21:08.897Z,97038.31
2022-12-08T02:23:50.545Z,97032.72
2022-12-08T02:26:22.805Z,97036.09
2022-12-08T02:28:55.323Z,97026.81
2022-12-08T02:31:45.035Z,97028.72
2022-12-08T02:34:14.382Z,97026.91
2022-12-08T02:36:57.449Z,97035.66
2022-12-08T02:39:37.532Z,97041.13
2022-12-08T02:42:03.948Z,97033.84
2022-12-08T02:44:33.273Z,97041.25
2022-12-08T02:47:04.743Z,97038.09
2022-12-08T02:49:32.378Z,97028.25
2022-12-08T02:52:25.090Z,97036.78
2022-12-08T02:54:53.530Z,97035.75
2022-12-08T02:57:40.245Z,97033.41
2022-12-08T03:00:13.432Z,97037.31
2022-12-08T03:02:57.081Z,97034.66
2022-12-08T03:05:51.856Z,97030.16
2022-12-08T03:08:30.441Z,97028.59
2022-12-08T03:10:57.110Z,97032.06
2022-12-08T03:13:27.113Z,97024.22
2022-12-08T03:15:54.783Z,97017.88
2022-12-08T03:18:22.808Z,97024.22
2022-12-08T03:20:50.499Z,97015.97
2022-12-08T03:23:18.152Z,97014.41
2022-12-08T03:25:59.771Z,97020.00
2022-12-08T03:28:26.241Z,97032.41
2022-12-08T03:30:55.752Z,97032.72
2022-12-08T03:33:28.978Z,97029.41
2022-12-08T03:35:55.715Z,97027.94
2022-12-08T03:38:22.863Z,97025.69
2022-12-08T03:41:09.284Z,97029.72
2022-12-08T03:43:35.931Z,97026.88
2022-12-08T03:46:02.462Z,97032.81
2022-12-08T03:48:28.891Z,97036.00
2022-12-08T03:50:55.520Z,97046.44
2022-12-08T03:53:22.038Z,97037.59
2022-12-08T03:55:48.455Z,97048.09
2022-12-08T03:58:14.846Z,97048.41
2022-12-08T04:00:41.320Z,97047.63
2022-12-08T04:03:07.836Z,97046.50
2022-12-08T04:05:34.373Z,97056.00
2022-12-08T04:08:01.227Z,97060.28
2022-12-08T04:10:27.703Z,97058.25
2022-12-08T04:12:54.072Z,97060.72
2022-12-08T04:15:20.499Z,97056.53
2022-12-08T04:17:46.934Z,97069.28
2022-12-08T04:20:13.489Z,97052.53
2022-12-08T04:22:40.029Z,97058.66
2022-12-08T04:25:07.087Z,97063.91
2022-12-08T04:27:33.552Z,97055.31
2022-12-08T04:29:59.951Z,97058.13
2022-12-08T04:32:26.384Z,97062.59
2022-12-08T04:34:52.893Z,97058.66
2022-12-08T04:37:19.390Z,97057.97
2022-12-08T04:39:45.844Z,97059.56
2022-12-08T04:42:12.256Z,97058.66
2022-12-08T04:44:38.653Z,97053.06
2022-12-08T04:47:05.112Z,97061.91
2022-12-08T04:49:31.620Z,97052.25
2022-12-08T04:51:58.058Z,97056.16
2022-12-08T04:54:24.457Z,97057.28
2022-12-08T04:56:50.855Z,97054.69
2022-12-08T04:59:17.236Z,97059.41
2022-12-08T05:01:43.821Z,97057.63
2022-12-08T05:04:10.319Z,97061.44
2022-12-08T05:06:36.737Z,97063.38
2022-12-08T05:09:03.196Z,97058.22
2022-12-08T05:11:29.613Z,97056.53
2022-12-08T05:13:56.119Z,97063.13
2022-12-08T05:16:22.601Z,97056.53
2022-12-08T05:18:49.053Z,97047.28
2022-12-08T05:21:15.461Z,97060.38
2022-12-08T05:23:41.928Z,97061.06
2022-12-08T05:26:08.456Z,97064.28
2022-12-08T05:28:43.350Z,97055.13
2022-12-08T05:31:11.302Z,97061.94
2022-12-08T05:33:37.801Z,97063.84
2022-12-08T05:36:04.320Z,97072.91
2022-12-08T05:38:30.825Z,97076.47
2022-12-08T05:40:57.347Z,97083.31
2022-12-08T05:43:23.783Z,97085.31
2022-12-08T05:45:50.549Z,97089.13
2022-12-08T05:48:17.065Z,97088.78
2022-12-08T05:50:50.158Z,97086.00
2022-12-08T05:53:17.660Z,97095.06
2022-12-08T05:55:44.436Z,97101.88
2022-12-08T05:58:13.205Z,97093.50
2022-12-08T06:00:39.821Z,97101.53
2022-12-08T06:03:06.357Z,97104.88
2022-12-08T06:05:36.061Z,97103.41
2022-12-08T06:08:02.702Z,97110.13
2022-12-08T06:10:29.527Z,97109.78
2022-12-08T06:12:56.039Z,97105.63
2022-12-08T06:15:22.450Z,97108.72
2022-12-08T06:17:48.916Z,97114.41
2022-12-08T06:20:15.436Z,97112.03
2022-12-08T06:22:41.856Z,97119.44
2022-12-08T06:25:10.118Z,97118.22
2022-12-08T06:27:36.722Z,97122.91
2022-12-08T06:30:03.660Z,97120.13
2022-12-08T06:32:30.433Z,97121.38
2022-12-08T06:34:57.084Z,97116.97
2022-12-08T06:37:23.529Z,97125.38
2022-12-08T06:39:50.008Z,97118.22
2022-12-08T06:42:35.333Z,97122.56
2022-12-08T06:45:01.788Z,97128.38
2022-12-08T06:47:28.191Z,97124.69
2022-12-08T06:49:54.678Z,97128.84
2022-12-08T06:52:21.093Z,97138.63
2022-12-08T06:54:47.516Z,97130.03
2022-12-08T06:57:13.984Z,97132.44
2022-12-08T06:59:40.424Z,97137.22
2022-12-08T07:02:07.261Z,97129.88
2022-12-08T07:04:33.715Z,97135.28
2022-12-08T07:07:00.148Z,97148.03
2022-12-08T07:09:26.536Z,97146.34
2022-12-08T07:11:52.961Z,97143.47
2022-12-08T07:14:23.605Z,97136.97
2022-12-08T07:16:50.728Z,97138.91
2022-12-08T07:19:17.371Z,97137.31
2022-12-08T07:21:43.797Z,97145.66
2022-12-08T07:24:10.433Z,97148.88
2022-12-08T07:26:36.955Z,97149.03
2022-12-08T07:29:03.916Z,97150.38
2022-12-08T07:31:30.370Z,97146.84
2022-12-08T07:33:57.096Z,97151.88
2022-12-08T07:36:23.921Z,97153.00
2022-12-08T07:38:51.130Z,97156.72
2022-12-08T07:41:18.466Z,97157.25
2022-12-08T07:43:45.308Z,97150.22
2022-12-08T07:46:12.563Z,97151.56
2022-12-08T07:48:39.292Z,97154.28
2022-12-08T07:51:06.139Z,97149.13
2022-12-08T07:53:32.603Z,97148.69
2022-12-08T07:55:59.303Z,97153.16
2022-12-08T07:58:25.853Z,97149.53
2022-12-08T08:00:52.649Z,97156.94
2022-12-08T08:03:19.263Z,97154.94
2022-12-08T08:05:48.251Z,97153.00
2022-12-08T08:08:14.683Z,97155.19
2022-12-08T08:10:41.192Z,97154.13
2022-12-08T08:13:08.309Z,97160.84
2022-12-08T08:15:35.078Z,97155.69
2022-12-08T08:18:01.570Z,97160.72
2022-12-08T08:20:27.962Z,97155.72
2022-12-08T08:22:54.371Z,97153.00
2022-12-08T08:25:22.846Z,97152.59
2022-12-08T08:27:49.653Z,97150.34
2022-12-08T08:30:20.324Z,97152.44
2022-12-08T08:32:47.952Z,97151.31
2022-12-08T08:35:14.483Z,97148.47
2022-12-08T08:37:44.363Z,97145.59
2022-12-08T08:40:14.963Z,97159.84
2022-12-08T08:42:41.389Z,97145.59
2022-12-08T08:45:08.021Z,97139.81
2022-12-08T08:47:34.465Z,97144.03
2022-12-08T08:50:00.905Z,97142.09
2022-12-08T08:52:27.321Z,97134.28
2022-12-08T08:54:53.763Z,97128.00
2022-12-08T08:57:25.297Z,97115.16
2022-12-08T08:59:52.358Z,97105.97
2022-12-08T09:02:19.282Z,97091.41
2022-12-08T09:04:46.130Z,97091.72
2022-12-08T09:07:13.379Z,97092.53
2022-12-08T09:09:40.245Z,97082.16
2022-12-08T09:12:06.674Z,97087.88
2022-12-08T09:14:33.094Z,97081.06
2022-12-08T09:16:59.537Z,97088.97
2022-12-08T09:19:26.038Z,97093.75
2022-12-08T09:21:52.461Z,97101.28
2022-12-08T09:24:18.876Z,97106.34
2022-12-08T09:26:45.630Z,97105.06
2022-12-08T09:29:12.207Z,97103.09
2022-12-08T09:31:38.736Z,97099.88
2022-12-08T09:34:05.345Z,97101.84
2022-12-08T09:36:31.791Z,97088.56
2022-12-08T09:38:58.399Z,97088.34
2022-12-08T09:41:39.191Z,97088.94
2022-12-08T09:44:21.829Z,97088.56
2022-12-08T09:46:51.185Z,97075.66
2022-12-08T09:49:20.950Z,97074.81
2022-12-08T09:51:47.429Z,97075.97
2022-12-08T09:54:22.232Z,97068.88
2022-12-08T09:56:51.319Z,97071.28
2022-12-08T09:59:31.627Z,97061.53
2022-12-08T10:01:58.288Z,97063.13
2022-12-08T10:04:24.795Z,97056.47
2022-12-08T10:07:02.455Z,97058.78
2022-12-08T10:09:38.773Z,97054.81
2022-12-08T10:12:08.311Z,97058.16
2022-12-08T10:14:41.739Z,97050.03
2022-12-08T10:17:15.575Z,97045.78
2022-12-08T10:19:42.474Z,97049.19
2022-12-08T10:22:20.827Z,97042.66
2022-12-08T10:24:53.438Z,97048.03
2022-12-08T10:27:20.392Z,97042.66
2022-12-08T10:29:46.827Z,97043.25
2022-12-08T10:32:17.003Z,97036.25
2022-12-08T10:35:18.702Z,97045.78
2022-12-08T10:38:00.989Z,97026.72
2022-12-08T10:40:28.417Z,97031.38
2022-12-08T10:42:58.537Z,97034.91
2022-12-08T10:45:27.872Z,97031.97
2022-12-08T10:48:02.072Z,97023.66
2022-12-08T10:50:30.548Z,97017.81
2022-12-08T10:52:58.894Z,97010.31
2022-12-08T10:55:25.348Z,97012.84
2022-12-08T10:57:51.790Z,97014.00
2022-12-08T11:00:21.185Z,97011.66
2022-12-08T11:02:53.085Z,97002.31
2022-12-08T11:05:20.622Z,97004.44
2022-12-08T11:07:51.795Z,97010.34
2022-12-08T11:10:19.156Z,97005.84
2022-12-08T11:12:45.856Z,97003.00
2022-12-08T11:15:18.474Z,97003.31
2022-12-08T11:17:52.203Z,96996.00
2022-12-08T11:20:22.965Z,96984.69
2022-12-08T11:22:54.349Z,96991.19
2022-12-08T11:25:22.803Z,96998.34
2022-12-08T11:27:50.199Z,96990.53
2022-12-08T11:30:17.126Z,96989.84
2022-12-08T11:32:47.529Z,96989.63
2022-12-08T11:35:18.993Z,96990.75
2022-12-08T11:37:45.425Z,96978.75
2022-12-08T11:40:26.223Z,96981.63
2022-12-08T11:42:55.636Z,96987.41
2022-12-08T11:45:26.755Z,96986.06
2022-12-08T11:48:05.073Z,96987.63
2022-12-08T11:50:52.090Z,96983.66
2022-12-08T11:53:33.119Z,96978.50
2022-12-08T11:56:01.067Z,96978.69
2022-12-08T11:58:39.376Z,96983.44
2022-12-08T12:01:05.838Z,96958.03
2022-12-08T12:03:40.607Z,96968.75
2022-12-08T12:06:23.968Z,96973.25
2022-12-08T12:09:08.691Z,96976.84
2022-12-08T12:12:08.393Z,96965.25
2022-12-08T12:14:56.840Z,96964.28
2022-12-08T12:17:43.528Z,96955.34
2022-12-08T12:20:21.330Z,96961.94
2022-12-08T12:22:50.149Z,96968.19
2022-12-08T12:25:19.429Z,96968.19
2022-12-08T12:27:46.568Z,96968.97
2022-12-08T12:30:23.967Z,96968.38
2022-12-08T12:32:58.418Z,96965.25
2022-12-08T12:35:32.189Z,96965.94
2022-12-08T12:38:01.323Z,96964.84
2022-12-08T12:40:29.104Z,96958.75
2022-12-08T12:42:55.593Z,96964.28
2022-12-08T12:45:22.013Z,96966.78
2022-12-08T12:47:58.863Z,96964.25
2022-12-08T12:50:34.372Z,96963.00
2022-12-08T12:53:02.384Z,96963.28
2022-12-08T12:55:52.078Z,96958.44
2022-12-08T12:58:27.272Z,96965.41
2022-12-08T13:01:12.733Z,96963.38
2022-12-08T13:03:40.756Z,96978.06
2022-12-08T13:06:14.593Z,96965.63
2022-12-08T13:08:50.304Z,96960.63
2022-12-08T13:11:16.706Z,96958.13
2022-12-08T13:14:15.610Z,96963.06
2022-12-08T13:16:42.068Z,96961.69
2022-12-08T13:19:15.979Z,96960.53
2022-12-08T13:21:42.742Z,96950.78
2022-12-08T13:24:19.766Z,96952.06
2022-12-08T13:26:50.131Z,96961.47
2022-12-08T13:29:26.056Z,96954.38
2022-12-08T13:31:57.027Z,96942.13
2022-12-08T13:34:32.772Z,96941.25
2022-12-08T13:37:08.291Z,96944.38
2022-12-08T13:39:40.593Z,96955.06
2022-12-08T13:42:12.961Z,96949.44
2022-12-08T13:53:00.038Z,96958.13
2022-12-08T13:59:20.846Z,96954.41
2022-12-08T14:01:48.743Z,96950.53
2022-12-08T14:04:42.514Z,96964.63
2022-12-08T14:07:09.522Z,96962.16
2022-12-08T14:09:36.827Z,96970.91
2022-12-08T14:12:20.260Z,96978.78
2022-12-08T14:15:03.834Z,96969.72
2022-12-08T14:17:30.961Z,96974.75
2022-12-08T14:19:57.446Z,96974.75
2022-12-08T14:22:24.509Z,96982.13
2022-12-08T14:24:53.228Z,96985.06
2022-12-08T14:27:24.054Z,96986.63
2022-12-08T14:29:58.280Z,96992.00
2022-12-08T14:32:44.413Z,96981.84
2022-12-08T14:35:10.787Z,96995.72
2022-12-08T14:37:44.607Z,96993.75
2022-12-08T14:40:37.075Z,96986.09
2022-12-08T14:43:09.461Z,96987.94
2022-12-08T14:45:38.965Z,97000.34
2022-12-08T14:48:25.318Z,96981.88
2022-12-08T14:50:54.964Z,96984.81
2022-12-08T14:53:21.544Z,96997.06
2022-12-08T14:55:49.142Z,96988.00
2022-12-08T14:58:20.633Z,96987.50
2022-12-08T15:00:48.407Z,96985.78
2022-12-08T15:03:16.642Z,96971.88
2022-12-08T15:05:43.407Z,96985.50
2022-12-08T15:08:12.801Z,96983.66
2022-12-08T15:10:40.044Z,96984.28
2022-12-08T15:13:19.963Z,96989.75
2022-12-08T15:15:51.367Z,96998.03
2022-12-08T15:18:19.828Z,97000.81
2022-12-08T15:20:46.236Z,97010.16
2022-12-08T15:23:32.539Z,97007.72
2022-12-08T15:25:59.684Z,97010.84
2022-12-08T15:28:30.012Z,97025.03
2022-12-08T15:30:57.788Z,97020.78
2022-12-08T15:33:24.575Z,97020.00
2022-12-08T15:35:51.176Z,97014.25
2022-12-08T15:38:19.672Z,97014.25
2022-12-08T15:40:46.338Z,97014.91
2022-12-08T15:43:12.818Z,97008.03
2022-12-08T15:45:46.879Z,97013.53
2022-12-08T15:48:22.519Z,97016.19
2022-12-08T15:50:49.530Z,97025.91
2022-12-08T15:53:16.005Z,97019.28
2022-12-08T15:56:03.534Z,97022.13
2022-12-08T15:58:53.704Z,97032.47
2022-12-08T16:01:17.137Z,97025.03
2022-12-08T16:04:25.457Z,97025.03
2022-12-08T16:09:21.682Z,97034.38
2022-12-08T16:12:08.814Z,97036.59
2022-12-08T16:17:22.515Z,97022.50
2022-12-08T16:19:49.042Z,97026.94
2022-12-08T16:25:22.627Z,97034.09
2022-12-08T16:28:01.412Z,97040.53
2022-12-08T16:30:29.807Z,97040.03
2022-12-08T16:32:56.213Z,97033.31
2022-12-08T16:35:22.662Z,97039.63
2022-12-08T16:37:49.100Z,97039.63
2022-12-08T16:40:15.692Z,97039.75
2022-12-08T16:42:46.627Z,97042.84
2022-12-08T16:45:13.393Z,97046.34
2022-12-08T16:47:41.289Z,97041.00
2022-12-08T16:50:09.266Z,97049.47
2022-12-08T16:52:35.695Z,97047.78
2022-12-08T16:55:02.418Z,97043.88
2022-12-08T16:57:29.137Z,97054.81
2022-12-08T16:59:55.900Z,97057.94
2022-12-08T17:02:22.387Z,97055.28
2022-12-08T17:04:49.001Z,97054.81
2022-12-08T17:07:16.312Z,97063.56
2022-12-08T17:09:43.064Z,97060.75
2022-12-08T17:12:10.660Z,97062.34
2022-12-08T17:14:37.110Z,97060.28
2022-12-08T17:17:03.764Z,97057.63
2022-12-08T17:19:30.228Z,97060.75
2022-12-08T17:21:56.671Z,97055.91
2022-12-08T17:24:25.036Z,97047.34
2022-12-08T17:26:52.900Z,97035.50
2022-12-08T17:29:19.342Z,97038.91
2022-12-08T17:31:46.413Z,97033.28
2022-12-08T17:34:12.883Z,97045.47
2022-12-08T17:36:39.623Z,97042.34
2022-12-08T17:39:09.249Z,97053.31
2022-12-08T17:41:37.461Z,97057.38
2022-12-08T17:44:09.599Z,97053.59
2022-12-08T17:46:41.615Z,97052.38
2022-12-08T17:49:16.005Z,97045.50
2022-12-08T17:51:42.582Z,97055.31
2022-12-08T17:54:09.198Z,97055.50
2022-12-08T17:56:35.656Z,97057.06
2022-12-08T17:59:02.605Z,97053.31
2022-12-08T18:01:29.127Z,97049.25
2022-12-08T18:03:55.673Z,97047.69
2022-12-08T18:06:25.621Z,97050.97
2022-12-08T18:08:53.373Z,97043.31
2022-12-08T18:11:19.870Z,97054.88
2022-12-08T18:13:50.690Z,97061.13
2022-12-08T18:16:18.195Z,97058.94
2022-12-08T18:18:44.656Z,97061.91
2022-12-08T18:21:11.606Z,97064.25
2022-12-08T18:23:39.187Z,97061.31
2022-12-08T18:26:06.597Z,97075.50
2022-12-08T18:28:33.278Z,97069.69
2022-12-08T18:30:59.713Z,97077.03
2022-12-08T18:33:26.222Z,97073.28
2022-12-08T18:35:52.664Z,97077.03
2022-12-08T18:38:19.414Z,97073.16
2022-12-08T18:40:45.807Z,97086.44
2022-12-08T18:43:12.336Z,97079.25
2022-12-08T18:45:39.757Z,97080.81
2022-12-08T18:48:06.731Z,97073.00
2022-12-08T18:50:33.126Z,97083.00
2022-12-08T18:52:59.605Z,97082.41
2022-12-08T18:55:26.052Z,97084.25
2022-12-08T18:57:52.513Z,97077.53
2022-12-08T19:00:19.668Z,97080.22
2022-12-08T19:02:46.200Z,97075.81
2022-12-08T19:05:13.597Z,97076.13
2022-12-08T19:07:40.262Z,97072.88
2022-12-08T19:10:07.301Z,97078.97
2022-12-08T19:12:34.063Z,97084.28
2022-12-08T19:15:00.715Z,97080.69
2022-12-08T19:17:27.297Z,97078.50
2022-12-08T19:19:53.779Z,97076.78
2022-12-08T19:22:20.174Z,97070.53
2022-12-08T19:24:46.613Z,97082.41
2022-12-08T19:27:13.042Z,97083.53
2022-12-08T19:29:39.486Z,97078.97
2022-12-08T19:32:05.992Z,97093.50
2022-12-08T19:34:32.486Z,97087.09
2022-12-08T19:36:59.015Z,97099.94
2022-12-08T19:39:43.866Z,97095.22
2022-12-08T19:42:32.858Z,97094.28
2022-12-08T19:45:01.266Z,97082.09
2022-12-08T19:47:27.879Z,97084.00
2022-12-08T19:50:15.191Z,97089.28
2022-12-08T19:52:42.083Z,97083.34
2022-12-08T19:55:08.717Z,97093.34
2022-12-08T19:57:35.114Z,97097.72
2022-12-08T20:00:01.745Z,97099.28
2022-12-08T20:02:29.387Z,97104.91
2022-12-08T20:04:56.039Z,97103.03
2022-12-08T20:07:22.477Z,97108.47
2022-12-08T20:09:48.924Z,97107.72
2022-12-08T20:12:15.354Z,97113.97
2022-12-08T20:14:45.879Z,97109.88
2022-12-08T20:17:12.703Z,97117.72
2022-12-08T20:19:39.279Z,97121.31
2022-12-08T20:22:05.682Z,97122.09
2022-12-08T20:24:32.134Z,97120.66
2022-12-08T20:26:58.626Z,97129.59
2022-12-08T20:29:25.124Z,97123.34
2022-12-08T20:31:51.736Z,97126.16
2022-12-08T20:34:18.956Z,97123.94
2022-12-08T20:36:45.956Z,97123.66
2022-12-08T20:39:13.878Z,97123.47
2022-12-08T20:41:44.361Z,97128.31
2022-12-08T20:44:11.096Z,97130.50
2022-12-08T20:46:37.819Z,97125.81
2022-12-08T20:49:04.611Z,97128.03
2022-12-08T20:51:32.273Z,97136.31
2022-12-08T20:53:59.541Z,97132.41
2022-12-08T20:56:26.759Z,97137.09
2022-12-08T20:58:53.652Z,97130.38
2022-12-08T21:01:21.746Z,97138.34
2022-12-08T21:03:48.994Z,97140.84
2022-12-08T21:06:16.060Z,97139.88
2022-12-08T21:08:42.914Z,97142.38
2022-12-08T21:11:10.328Z,97150.22
2022-12-08T21:13:37.388Z,97147.41
2022-12-08T21:16:04.917Z,97144.75
2022-12-08T21:18:37.459Z,97148.50
2022-12-08T21:21:07.223Z,97151.00
2022-12-08T21:23:33.719Z,97150.38
2022-12-08T21:26:00.321Z,97146.31
2022-12-08T21:28:26.793Z,97142.69
2022-12-08T21:30:53.356Z,97139.88
2022-12-08T21:33:19.968Z,97137.06
2022-12-08T21:35:46.901Z,97143.31
2022-12-08T21:38:13.640Z,97137.06
2022-12-08T21:40:40.053Z,97137.69
2022-12-08T21:43:06.712Z,97132.09
2022-12-08T21:45:33.570Z,97135.66
2022-12-08T21:48:04.351Z,97141.94
2022-12-08T21:50:33.903Z,97140.06
2022-12-08T21:53:00.503Z,97140.84
2022-12-08T21:55:27.057Z,97136.13
2022-12-08T21:57:53.753Z,97136.47
2022-12-08T22:00:20.705Z,97133.66
2022-12-08T22:02:47.299Z,97125.22
2022-12-08T22:05:14.302Z,97124.91
2022-12-08T22:07:41.371Z,97125.22
2022-12-08T22:10:09.082Z,97132.41
2022-12-08T22:12:36.462Z,97138.84
2022-12-08T22:15:05.704Z,97134.91
2022-12-08T22:17:35.559Z,97140.84
2022-12-08T22:20:02.546Z,97133.03
2022-12-08T22:22:29.201Z,97128.34
2022-12-08T22:24:55.760Z,97135.84
2022-12-08T22:27:22.173Z,97126.78
2022-12-08T22:29:48.749Z,97129.28
2022-12-08T22:32:15.309Z,97125.84
2022-12-08T22:34:41.724Z,97127.59
2022-12-08T22:37:08.197Z,97135.22
2022-12-08T22:39:35.777Z,97127.09
2022-12-08T22:42:02.570Z,97127.09
2022-12-08T22:44:29.267Z,97126.47
2022-12-08T22:46:56.635Z,97126.16
2022-12-08T22:49:24.291Z,97129.28
2022-12-08T22:51:51.186Z,97134.59
2022-12-08T22:54:17.976Z,97130.19
2022-12-08T22:56:44.566Z,97121.63
2022-12-08T22:59:10.964Z,97121.31
2022-12-08T23:01:37.437Z,97126.63
2022-12-08T23:04:04.086Z,97132.72
2022-12-08T23:06:31.643Z,97132.56
2022-12-08T23:08:59.250Z,97136.94
2022-12-08T23:11:27.699Z,97131.47
2022-12-08T23:13:55.988Z,97131.13
2022-12-08T23:16:22.616Z,97133.63
2022-12-08T23:18:49.049Z,97137.25
2022-12-08T23:21:17.223Z,97132.09
2022-12-08T23:23:43.887Z,97139.88
2022-12-08T23:26:18.057Z,97133.66
2022-12-08T23:28:44.560Z,97125.06
2022-12-08T23:31:11.295Z,97124.56
2022-12-08T23:33:37.869Z,97129.91
2022-12-08T23:36:04.450Z,97129.44
2022-12-08T23:38:30.911Z,97128.19
2022-12-08T23:41:00.605Z,97121.75
2022-12-08T23:43:27.114Z,97134.91
2022-12-08T23:45:53.618Z,97129.75
2022-12-08T23:48:20.457Z,97127.41
2022-12-08T23:50:47.094Z,97134.63
2022-12-08T23:53:13.539Z,97129.28
2022-12-08T23:55:40.133Z,97118.81
2022-12-08T23:58:06.528Z,97128.69
